Time;durP1;ratioP1;P1;durP2;ratioP2;P2;SDS_P1;SDS_P2;PMS_P1;PMS_P2;Temp;Humidity;BMP_temperature;BMP_pressure;BME280_temperature;BME280_humidity;BME280_pressure;Samples;Min_cycle;Max_cycle;Signal;HPM_P1;HPM_P2
2023/06/21 00:00:12;;;;;;;14.90;6.53;;;;;;;;;;5063452;28;20044;-72
2023/06/21 00:02:39;;;;;;;12.68;7.18;;;;;;;;;;5071786;28;20062;-76
2023/06/21 00:05:06;;;;;;;17.88;7.78;;;;;;;;;;5007314;28;21022;-75
2023/06/21 00:07:33;;;;;;;12.27;7.07;;;;;;;;;;5005335;28;20056;-74
2023/06/21 00:09:59;;;;;;;9.82;4.22;;;;;;;;;;4993857;28;20099;-75
2023/06/21 00:12:28;;;;;;;10.90;4.28;;;;;;;;;;5013971;28;20057;-75
2023/06/21 00:14:54;;;;;;;8.07;3.92;;;;;;;;;;4992751;28;20260;-73
2023/06/21 00:17:21;;;;;;;12.45;4.57;;;;;;;;;;5002005;28;20120;-70
2023/06/21 00:19:48;;;;;;;6.18;3.22;;;;;;;;;;5029873;28;20057;-73
2023/06/21 00:22:21;;;;;;;8.75;3.78;;;;;;;;;;5037830;28;20056;-70
2023/06/21 00:24:48;;;;;;;6.65;3.60;;;;;;;;;;5030924;28;20056;-70
2023/06/21 00:27:14;;;;;;;8.18;4.00;;;;;;;;;;5071826;28;20060;-73
2023/06/21 00:29:43;;;;;;;10.23;4.45;;;;;;;;;;5060548;28;20151;-72
2023/06/21 00:32:09;;;;;;;;;;;;;;;;;;5053558;28;20059;-74
2023/06/21 00:34:36;;;;;;;9.52;4.85;;;;;;;;;;5047328;28;19930;-75
2023/06/21 00:37:03;;;;;;;7.93;4.53;;;;;;;;;;5051520;28;20053;-73
2023/06/21 00:39:30;;;;;;;8.68;4.22;;;;;;;;;;5059333;28;20139;-70
2023/06/21 00:41:57;;;;;;;8.05;4.53;;;;;;;;;;5045609;28;20182;-72
2023/06/21 00:44:23;;;;;;;9.20;4.35;;;;;;;;;;5038158;28;20064;-74
2023/06/21 00:46:54;;;;;;;8.10;4.45;;;;;;;;;;5041156;28;20048;-73
2023/06/21 00:49:20;;;;;;;6.28;3.25;;;;;;;;;;5058174;28;20113;-78
2023/06/21 00:51:47;;;;;;;7.50;3.80;;;;;;;;;;5047673;28;20052;-76
2023/06/21 00:54:16;;;;;;;6.82;3.63;;;;;;;;;;5058768;28;20052;-75
2023/06/21 00:56:43;;;;;;;8.88;3.65;;;;;;;;;;5026219;28;20051;-72
2023/06/21 00:59:12;;;;;;;10.20;3.92;;;;;;;;;;5058580;28;20052;-76
2023/06/21 01:01:38;;;;;;;10.43;5.05;;;;;;;;;;5052404;28;20354;-73
2023/06/21 01:04:08;;;;;;;10.15;4.60;;;;;;;;;;5056802;28;20061;-71
2023/06/21 01:06:38;;;;;;;12.30;4.47;;;;;;;;;;5053215;28;20067;-72
2023/06/21 01:09:08;;;;;;;12.25;4.80;;;;;;;;;;5047611;28;20121;-74
2023/06/21 01:11:39;;;;;;;8.73;4.88;;;;;;;;;;5057127;28;20052;-73
2023/06/21 01:14:12;;;;;;;9.18;5.13;;;;;;;;;;5052103;28;20091;-74
2023/06/21 01:16:40;;;;;;;9.13;4.22;;;;;;;;;;5044831;28;20071;-73
2023/06/21 01:19:12;;;;;;;11.60;5.80;;;;;;;;;;5050425;28;20048;-76
2023/06/21 01:21:39;;;;;;;10.50;5.45;;;;;;;;;;5049991;28;20048;-72
2023/06/21 01:24:16;;;;;;;10.90;5.05;;;;;;;;;;5050246;28;20061;-70
2023/06/21 01:26:49;;;;;;;8.85;4.25;;;;;;;;;;5055931;28;20052;-70
2023/06/21 01:29:17;;;;;;;10.90;4.95;;;;;;;;;;5056329;28;20053;-72
2023/06/21 01:31:45;;;;;;;8.48;4.78;;;;;;;;;;5051618;28;20146;-74
2023/06/21 01:34:12;;;;;;;12.45;5.45;;;;;;;;;;5056573;28;20056;-72
2023/06/21 01:36:39;;;;;;;8.20;4.03;;;;;;;;;;5040383;28;20052;-73
2023/06/21 01:39:08;;;;;;;10.32;5.45;;;;;;;;;;5045568;28;20048;-75
2023/06/21 01:41:36;;;;;;;11.70;6.25;;;;;;;;;;5057660;28;20058;-75
2023/06/21 01:44:03;;;;;;;9.87;5.50;;;;;;;;;;5050207;28;20063;-74
2023/06/21 01:46:31;;;;;;;11.80;5.53;;;;;;;;;;5054378;28;20101;-74
2023/06/21 01:48:58;;;;;;;9.05;4.75;;;;;;;;;;5053243;28;20052;-75
2023/06/21 01:51:24;;;;;;;8.40;4.90;;;;;;;;;;5057130;28;20063;-70
2023/06/21 01:53:51;;;;;;;11.75;5.88;;;;;;;;;;5049558;28;20051;-75
2023/06/21 01:56:18;;;;;;;12.95;5.55;;;;;;;;;;5055027;28;20091;-72
2023/06/21 01:58:45;;;;;;;11.23;5.60;;;;;;;;;;5054975;28;20060;-73
2023/06/21 02:01:12;;;;;;;10.85;5.95;;;;;;;;;;5057010;28;20059;-72
2023/06/21 02:03:43;;;;;;;11.10;6.15;;;;;;;;;;5043688;28;20062;-75
2023/06/21 02:06:11;;;;;;;16.75;6.80;;;;;;;;;;5043114;28;20048;-73
2023/06/21 02:08:38;;;;;;;11.15;6.22;;;;;;;;;;5051688;28;20055;-71
2023/06/21 02:11:05;;;;;;;10.45;5.47;;;;;;;;;;5057383;28;20048;-72
2023/06/21 02:13:32;;;;;;;11.77;6.55;;;;;;;;;;5053879;28;20044;-74
2023/06/21 02:15:58;;;;;;;10.07;5.45;;;;;;;;;;5030452;28;20062;-73
2023/06/21 02:18:25;;;;;;;13.65;6.68;;;;;;;;;;5046425;28;20055;-74
2023/06/21 02:20:53;;;;;;;11.27;6.05;;;;;;;;;;5049031;28;20048;-72
2023/06/21 02:23:20;;;;;;;13.40;5.72;;;;;;;;;;5061059;28;20083;-72
2023/06/21 02:25:47;;;;;;;11.13;6.03;;;;;;;;;;5033166;28;20131;-71
2023/06/21 02:28:13;;;;;;;12.05;6.20;;;;;;;;;;5060689;28;20055;-73
2023/06/21 02:30:40;;;;;;;13.80;7.00;;;;;;;;;;5049165;28;20054;-71
2023/06/21 02:33:07;;;;;;;12.30;6.03;;;;;;;;;;5083682;28;20117;-75
2023/06/21 02:35:33;;;;;;;11.35;6.47;;;;;;;;;;5069321;28;20047;-74
2023/06/21 02:38:02;;;;;;;12.93;6.63;;;;;;;;;;5080713;28;20054;-70
2023/06/21 02:40:28;;;;;;;10.68;6.18;;;;;;;;;;5069980;28;20082;-75
2023/06/21 02:42:55;;;;;;;14.18;6.72;;;;;;;;;;5082848;28;20142;-75
2023/06/21 02:45:21;;;;;;;13.93;7.05;;;;;;;;;;5076988;28;20095;-72
2023/06/21 02:47:48;;;;;;;12.95;7.07;;;;;;;;;;5077057;28;20055;-74
2023/06/21 02:50:16;;;;;;;12.88;6.57;;;;;;;;;;5062883;28;20054;-74
2023/06/21 02:52:43;;;;;;;14.10;6.90;;;;;;;;;;5067008;28;20056;-70
2023/06/21 02:55:11;;;;;;;15.15;7.32;;;;;;;;;;4966736;28;20118;-69
2023/06/21 02:57:37;;;;;;;;;;;;;;;;;;5038483;28;20060;-74
2023/06/21 03:00:17;;;;;;;16.23;7.80;;;;;;;;;;5078968;28;20030;-74
2023/06/21 03:02:44;;;;;;;15.68;7.93;;;;;;;;;;5065200;28;20067;-73
2023/06/21 03:05:11;;;;;;;14.50;7.38;;;;;;;;;;5061590;28;20080;-74
2023/06/21 03:07:38;;;;;;;15.65;8.13;;;;;;;;;;5075490;28;20062;-72
2023/06/21 03:10:05;;;;;;;15.52;8.30;;;;;;;;;;5081131;28;20048;-72
2023/06/21 03:12:33;;;;;;;14.60;7.78;;;;;;;;;;5062111;28;20052;-74
2023/06/21 03:15:00;;;;;;;14.35;8.15;;;;;;;;;;5053457;28;20091;-69
2023/06/21 03:17:27;;;;;;;15.23;7.88;;;;;;;;;;5060064;28;20135;-74
2023/06/21 03:19:54;;;;;;;15.40;7.97;;;;;;;;;;5057681;28;20171;-74
2023/06/21 03:22:21;;;;;;;13.90;8.35;;;;;;;;;;5077684;28;20050;-74
2023/06/21 03:24:47;;;;;;;12.45;6.70;;;;;;;;;;5060123;28;20055;-73
2023/06/21 03:27:14;;;;;;;14.95;7.22;;;;;;;;;;5072169;28;20066;-74
2023/06/21 03:29:42;;;;;;;13.65;7.25;;;;;;;;;;5075395;28;20058;-75
2023/06/21 03:32:09;;;;;;;14.68;8.07;;;;;;;;;;5076652;28;20052;-69
2023/06/21 03:34:35;;;;;;;14.50;8.32;;;;;;;;;;5062164;28;20062;-72
2023/06/21 03:37:02;;;;;;;15.50;8.48;;;;;;;;;;5079226;28;20055;-73
2023/06/21 03:39:29;;;;;;;13.75;7.22;;;;;;;;;;5076539;28;20055;-70
2023/06/21 03:41:57;;;;;;;19.92;9.30;;;;;;;;;;5076551;28;20051;-74
2023/06/21 03:44:24;;;;;;;;;;;;;;;;;;5014820;28;20057;-74
2023/06/21 03:46:55;;;;;;;17.00;7.70;;;;;;;;;;5014667;28;19925;-72
2023/06/21 03:49:22;;;;;;;16.33;8.18;;;;;;;;;;4993994;28;20135;-73
2023/06/21 03:51:48;;;;;;;17.60;8.55;;;;;;;;;;5001080;28;20054;-74
2023/06/21 03:54:15;;;;;;;16.75;9.45;;;;;;;;;;4962159;28;20056;-74
2023/06/21 03:56:41;;;;;;;17.50;9.02;;;;;;;;;;4975504;28;20057;-72
2023/06/21 03:59:08;;;;;;;14.90;8.57;;;;;;;;;;4997034;28;20065;-71
2023/06/21 04:01:34;;;;;;;16.00;9.27;;;;;;;;;;4998327;28;20127;-74
2023/06/21 04:04:03;;;;;;;16.42;9.15;;;;;;;;;;4998725;28;20176;-73
2023/06/21 04:06:29;;;;;;;18.52;10.30;;;;;;;;;;4968861;28;20195;-72
2023/06/21 04:08:57;;;;;;;18.15;8.57;;;;;;;;;;5072286;28;20053;-71
2023/06/21 04:11:23;;;;;;;13.85;7.63;;;;;;;;;;5078478;28;20056;-70
2023/06/21 04:13:50;;;;;;;19.02;9.93;;;;;;;;;;5077520;28;20154;-69
2023/06/21 04:16:16;;;;;;;16.65;8.93;;;;;;;;;;5056508;28;20059;-74
2023/06/21 04:18:43;;;;;;;21.10;9.95;;;;;;;;;;5069859;28;20052;-72
2023/06/21 04:21:11;;;;;;;22.48;11.85;;;;;;;;;;5068093;28;20062;-75
2023/06/21 04:23:38;;;;;;;19.70;10.07;;;;;;;;;;5084417;28;20075;-69
2023/06/21 04:26:06;;;;;;;19.92;10.20;;;;;;;;;;5041916;28;20072;-72
2023/06/21 04:28:32;;;;;;;12.15;6.32;;;;;;;;;;5068506;28;20052;-71
2023/06/21 04:31:00;;;;;;;16.83;9.00;;;;;;;;;;5075606;28;20051;-70
2023/06/21 04:33:27;;;;;;;14.02;7.43;;;;;;;;;;5077642;28;20124;-71
2023/06/21 04:35:54;;;;;;;23.80;10.95;;;;;;;;;;5059791;28;20052;-76
2023/06/21 04:38:25;;;;;;;28.08;14.85;;;;;;;;;;5078025;28;20089;-74
2023/06/21 04:40:53;;;;;;;10.57;5.10;;;;;;;;;;5074619;28;20063;-75
2023/06/21 04:43:21;;;;;;;23.10;10.90;;;;;;;;;;5076786;28;20055;-70
2023/06/21 04:45:48;;;;;;;23.75;11.95;;;;;;;;;;5055831;28;20059;-71
2023/06/21 04:48:15;;;;;;;19.60;10.68;;;;;;;;;;5079954;28;20059;-71
2023/06/21 04:50:45;;;;;;;22.90;12.35;;;;;;;;;;5069265;28;20123;-73
2023/06/21 04:53:12;;;;;;;26.70;13.80;;;;;;;;;;5076937;28;20048;-73
2023/06/21 04:55:44;;;;;;;26.08;13.45;;;;;;;;;;5034479;28;20054;-76
2023/06/21 04:58:12;;;;;;;17.55;9.95;;;;;;;;;;5089675;28;20112;-71
2023/06/21 05:00:38;;;;;;;16.83;8.98;;;;;;;;;;5073703;28;20052;-76
2023/06/21 05:03:05;;;;;;;15.40;9.00;;;;;;;;;;5075089;28;20054;-71
2023/06/21 05:05:34;;;;;;;28.80;13.43;;;;;;;;;;5073998;28;20075;-74
2023/06/21 05:08:02;;;;;;;25.48;14.02;;;;;;;;;;5076072;28;20067;-74
2023/06/21 05:10:29;;;;;;;25.20;11.88;;;;;;;;;;5073825;28;20052;-71
2023/06/21 05:12:57;;;;;;;32.08;18.33;;;;;;;;;;5072685;28;20071;-70
2023/06/21 05:15:23;;;;;;;29.27;15.65;;;;;;;;;;5075121;28;20052;-73
2023/06/21 05:17:50;;;;;;;17.55;9.60;;;;;;;;;;5073830;28;20124;-71
2023/06/21 05:20:18;;;;;;;23.05;11.95;;;;;;;;;;5094587;28;20052;-71
2023/06/21 05:22:45;;;;;;;23.23;10.80;;;;;;;;;;5069153;28;20048;-75
2023/06/21 05:25:12;;;;;;;20.52;11.07;;;;;;;;;;5069334;28;20051;-74
2023/06/21 05:27:39;;;;;;;22.02;11.93;;;;;;;;;;5080533;28;20048;-72
2023/06/21 05:30:16;;;;;;;25.50;13.55;;;;;;;;;;5079446;28;20081;-75
2023/06/21 05:32:43;;;;;;;24.23;13.45;;;;;;;;;;5073687;28;20044;-75
2023/06/21 05:35:09;;;;;;;45.05;23.50;;;;;;;;;;5052636;28;20181;-74
2023/06/21 05:37:39;;;;;;;27.40;15.98;;;;;;;;;;5079187;28;20052;-73
2023/06/21 05:40:13;;;;;;;24.05;14.02;;;;;;;;;;5071242;28;20060;-74
2023/06/21 05:42:39;;;;;;;23.48;12.27;;;;;;;;;;5054877;28;20048;-71
2023/06/21 05:45:11;;;;;;;23.42;11.63;;;;;;;;;;5018858;28;20059;-72
2023/06/21 05:47:37;;;;;;;30.05;16.02;;;;;;;;;;5001267;28;20056;-72
2023/06/21 05:50:04;;;;;;;22.35;11.55;;;;;;;;;;5079022;28;20052;-76
2023/06/21 05:52:33;;;;;;;20.80;11.20;;;;;;;;;;5071989;28;20060;-71
2023/06/21 05:55:00;;;;;;;19.90;9.93;;;;;;;;;;5052880;28;20134;-70
2023/06/21 05:57:27;;;;;;;10.55;5.50;;;;;;;;;;5060564;28;20060;-71
2023/06/21 05:59:55;;;;;;;14.00;6.60;;;;;;;;;;5078320;28;20052;-70
2023/06/21 06:02:24;;;;;;;15.15;8.63;;;;;;;;;;5091745;28;20060;-69
2023/06/21 06:04:50;;;;;;;;;;;;;;;;;;5069663;28;20055;-72
2023/06/21 06:07:19;;;;;;;17.92;9.07;;;;;;;;;;5073580;28;19924;-71
2023/06/21 06:09:47;;;;;;;11.55;6.15;;;;;;;;;;5075204;28;20059;-71
2023/06/21 06:12:14;;;;;;;;;;;;;;;;;;5080366;28;20055;-70
2023/06/21 06:14:40;;;;;;;18.50;9.88;;;;;;;;;;5080279;28;20123;-74
2023/06/21 06:17:10;;;;;;;17.33;10.27;;;;;;;;;;5024549;28;20044;-74
2023/06/21 06:19:40;;;;;;;16.98;9.25;;;;;;;;;;5066476;28;20053;-72
2023/06/21 06:22:07;;;;;;;23.45;12.48;;;;;;;;;;5082009;28;20082;-73
2023/06/21 06:24:34;;;;;;;22.05;11.20;;;;;;;;;;5071708;28;20156;-72
2023/06/21 06:27:00;;;;;;;22.58;12.38;;;;;;;;;;5013453;28;20052;-71
2023/06/21 06:29:27;;;;;;;19.27;10.38;;;;;;;;;;5075349;28;20082;-72
2023/06/21 06:31:53;;;;;;;26.10;12.88;;;;;;;;;;5081214;28;20055;-69
2023/06/21 06:34:22;;;;;;;14.05;7.38;;;;;;;;;;5077101;28;20051;-72
2023/06/21 06:36:50;;;;;;;16.33;9.82;;;;;;;;;;5006887;28;20061;-73
2023/06/21 06:39:17;;;;;;;23.35;13.15;;;;;;;;;;5014928;28;20135;-72
2023/06/21 06:41:46;;;;;;;17.63;9.50;;;;;;;;;;4995873;28;20062;-69
2023/06/21 06:44:12;;;;;;;20.08;11.73;;;;;;;;;;5033759;28;20120;-74
2023/06/21 06:46:39;;;;;;;17.20;9.30;;;;;;;;;;5001896;28;20064;-72
2023/06/21 06:49:06;;;;;;;18.65;9.93;;;;;;;;;;5018700;28;20065;-72
2023/06/21 06:51:32;;;;;;;18.45;10.20;;;;;;;;;;5028467;28;20059;-72
2023/06/21 06:54:00;;;;;;;12.02;7.10;;;;;;;;;;5065666;28;20043;-75
2023/06/21 06:56:27;;;;;;;18.27;9.30;;;;;;;;;;5025157;28;20055;-70
2023/06/21 06:58:53;;;;;;;20.23;12.57;;;;;;;;;;5060184;28;20055;-73
2023/06/21 07:01:21;;;;;;;19.42;11.98;;;;;;;;;;5070695;28;20109;-74
2023/06/21 07:03:48;;;;;;;17.92;11.45;;;;;;;;;;5060188;28;20044;-73
2023/06/21 07:06:17;;;;;;;16.15;9.48;;;;;;;;;;5009333;28;20130;-72
2023/06/21 07:08:44;;;;;;;12.13;6.72;;;;;;;;;;4926015;28;20325;-74
2023/06/21 07:11:12;;;;;;;15.95;8.73;;;;;;;;;;4920844;28;20082;-73
2023/06/21 07:13:42;;;;;;;18.45;10.95;;;;;;;;;;4939725;28;20206;-73
2023/06/21 07:16:09;;;;;;;24.25;13.85;;;;;;;;;;4996719;28;20081;-74
2023/06/21 07:18:38;;;;;;;20.50;12.05;;;;;;;;;;5066295;28;20055;-71
2023/06/21 07:21:05;;;;;;;20.85;11.70;;;;;;;;;;5075027;28;20076;-74
2023/06/21 07:23:31;;;;;;;17.35;9.75;;;;;;;;;;5076804;28;20086;-69
2023/06/21 07:25:58;;;;;;;23.88;14.48;;;;;;;;;;5047348;28;20139;-71
2023/06/21 07:28:29;;;;;;;21.13;12.73;;;;;;;;;;5067151;28;20112;-70
2023/06/21 07:30:56;;;;;;;12.35;7.13;;;;;;;;;;5082971;28;20063;-69
2023/06/21 07:33:23;;;;;;;33.92;18.10;;;;;;;;;;5081256;28;20051;-72
2023/06/21 07:35:49;;;;;;;23.27;12.30;;;;;;;;;;5070772;28;20062;-69
2023/06/21 07:38:19;;;;;;;22.20;12.60;;;;;;;;;;5080703;28;20063;-68
2023/06/21 07:40:46;;;;;;;31.67;17.25;;;;;;;;;;5078561;28;20047;-69
2023/06/21 07:43:13;;;;;;;22.85;14.68;;;;;;;;;;5083138;28;20153;-69
2023/06/21 07:45:41;;;;;;;19.70;11.57;;;;;;;;;;5084271;28;20115;-70
2023/06/21 07:48:08;;;;;;;27.92;17.45;;;;;;;;;;5077234;28;20130;-69
2023/06/21 07:50:34;;;;;;;16.00;8.90;;;;;;;;;;5076218;28;20059;-69
2023/06/21 07:53:01;;;;;;;18.92;11.60;;;;;;;;;;5092962;28;20171;-72
2023/06/21 07:55:27;;;;;;;21.75;11.40;;;;;;;;;;5082551;28;20047;-70
2023/06/21 07:57:56;;;;;;;14.77;8.50;;;;;;;;;;5045699;28;20060;-70
2023/06/21 08:00:22;;;;;;;13.63;8.13;;;;;;;;;;5060431;28;20056;-69
2023/06/21 08:02:54;;;;;;;14.23;8.48;;;;;;;;;;5056761;28;20060;-70
2023/06/21 08:05:20;;;;;;;18.50;9.68;;;;;;;;;;5083817;28;20089;-70
2023/06/21 08:07:47;;;;;;;15.48;9.60;;;;;;;;;;5091517;28;20085;-71
2023/06/21 08:10:14;;;;;;;22.38;8.35;;;;;;;;;;5081077;28;20080;-71
2023/06/21 08:12:41;;;;;;;12.98;8.10;;;;;;;;;;5059017;28;20056;-73
2023/06/21 08:15:10;;;;;;;16.52;9.05;;;;;;;;;;5077105;28;20047;-70
2023/06/21 08:17:36;;;;;;;13.82;7.82;;;;;;;;;;5061864;28;20105;-69
2023/06/21 08:20:05;;;;;;;10.52;6.30;;;;;;;;;;5078535;28;20047;-68
2023/06/21 08:22:32;;;;;;;17.13;9.38;;;;;;;;;;5056855;28;20066;-72
2023/06/21 08:24:58;;;;;;;15.95;7.05;;;;;;;;;;5071919;28;20134;-70
2023/06/21 08:27:25;;;;;;;14.15;7.13;;;;;;;;;;5078552;28;20091;-70
2023/06/21 08:29:53;;;;;;;13.48;7.10;;;;;;;;;;5097563;28;20055;-70
2023/06/21 08:32:20;;;;;;;11.40;6.28;;;;;;;;;;5083221;28;20075;-72
2023/06/21 08:34:47;;;;;;;11.07;5.80;;;;;;;;;;5072247;28;20050;-73
2023/06/21 08:37:17;;;;;;;12.13;5.47;;;;;;;;;;5067402;28;20155;-71
2023/06/21 08:39:46;;;;;;;10.00;5.25;;;;;;;;;;5079043;28;20039;-69
2023/06/21 08:42:12;;;;;;;10.75;5.28;;;;;;;;;;5082960;28;20044;-71
2023/06/21 08:44:42;;;;;;;7.82;4.40;;;;;;;;;;5071893;28;20044;-73
2023/06/21 08:47:09;;;;;;;8.40;4.32;;;;;;;;;;5078533;28;20060;-70
2023/06/21 08:49:40;;;;;;;9.70;4.30;;;;;;;;;;5078939;28;20059;-71
2023/06/21 08:52:09;;;;;;;7.43;3.80;;;;;;;;;;5067481;28;20114;-72
2023/06/21 08:54:39;;;;;;;9.95;3.88;;;;;;;;;;5072535;28;20056;-71
2023/06/21 08:57:11;;;;;;;9.20;4.25;;;;;;;;;;5074735;28;20146;-69
2023/06/21 08:59:41;;;;;;;6.97;3.65;;;;;;;;;;5101026;28;20067;-70
2023/06/21 09:02:15;;;;;;;7.13;3.80;;;;;;;;;;5097741;28;20056;-68
2023/06/21 09:04:44;;;;;;;8.82;3.50;;;;;;;;;;5073795;28;20048;-72
2023/06/21 09:07:11;;;;;;;7.15;3.10;;;;;;;;;;5063999;28;20058;-70
2023/06/21 09:09:39;;;;;;;6.93;3.35;;;;;;;;;;5078317;28;20067;-68
2023/06/21 09:12:06;;;;;;;;;;;;;;;;;;5076283;28;20082;-69
2023/06/21 09:14:32;;;;;;;8.25;2.88;;;;;;;;;;5077447;28;20180;-68
2023/06/21 09:17:00;;;;;;;4.68;2.47;;;;;;;;;;5073315;28;20051;-68
2023/06/21 09:19:26;;;;;;;5.75;2.40;;;;;;;;;;5089416;28;20056;-70
2023/06/21 09:21:54;;;;;;;5.07;2.28;;;;;;;;;;5074379;28;20102;-70
2023/06/21 09:24:21;;;;;;;8.57;2.55;;;;;;;;;;5079685;28;20158;-69
2023/06/21 09:26:49;;;;;;;6.75;2.58;;;;;;;;;;5062108;28;20043;-68
2023/06/21 09:29:16;;;;;;;5.05;2.85;;;;;;;;;;5086126;28;20047;-67
2023/06/21 09:31:43;;;;;;;14.10;2.92;;;;;;;;;;5078199;28;20111;-69
2023/06/21 09:34:10;;;;;;;7.18;3.15;;;;;;;;;;5079666;28;20130;-68
2023/06/21 09:36:37;;;;;;;6.20;2.85;;;;;;;;;;5066109;28;20318;-70
2023/06/21 09:39:07;;;;;;;8.05;2.97;;;;;;;;;;5080728;28;20055;-71
2023/06/21 09:41:33;;;;;;;5.47;2.83;;;;;;;;;;5082383;28;20060;-71
2023/06/21 09:44:01;;;;;;;5.95;2.63;;;;;;;;;;5095254;28;20056;-68
2023/06/21 09:46:28;;;;;;;7.15;2.97;;;;;;;;;;5032614;28;20056;-69
2023/06/21 09:48:57;;;;;;;4.78;2.55;;;;;;;;;;5059959;28;20047;-68
2023/06/21 09:51:24;;;;;;;5.43;2.33;;;;;;;;;;5101838;28;20052;-68
2023/06/21 09:53:51;;;;;;;4.97;2.25;;;;;;;;;;5077072;28;20132;-71
2023/06/21 09:56:22;;;;;;;4.03;1.90;;;;;;;;;;5045473;28;20056;-71
2023/06/21 09:58:50;;;;;;;3.90;1.83;;;;;;;;;;5055644;28;20152;-71
2023/06/21 10:01:18;;;;;;;3.45;1.70;;;;;;;;;;5094183;28;20080;-71
2023/06/21 10:03:46;;;;;;;3.03;1.88;;;;;;;;;;5087073;28;20047;-70
2023/06/21 10:06:16;;;;;;;5.97;2.45;;;;;;;;;;5079334;28;20052;-69
2023/06/21 10:08:43;;;;;;;6.38;2.20;;;;;;;;;;5083557;28;20052;-69
2023/06/21 10:11:10;;;;;;;4.20;2.08;;;;;;;;;;5077975;28;20114;-70
2023/06/21 10:13:37;;;;;;;5.28;2.10;;;;;;;;;;5077249;28;20128;-68
2023/06/21 10:16:06;;;;;;;4.60;2.03;;;;;;;;;;5091964;28;20100;-70
2023/06/21 10:18:34;;;;;;;5.45;2.45;;;;;;;;;;5075291;28;20051;-69
2023/06/21 10:21:01;;;;;;;6.43;2.55;;;;;;;;;;5089891;28;20111;-69
2023/06/21 10:23:28;;;;;;;7.15;2.53;;;;;;;;;;5058476;28;20154;-69
2023/06/21 10:25:57;;;;;;;5.68;2.13;;;;;;;;;;5085244;28;20047;-68
2023/06/21 10:28:26;;;;;;;;;;;;;;;;;;5081301;28;20146;-70
2023/06/21 10:30:56;;;;;;;3.70;1.80;;;;;;;;;;5095101;28;20832;-68
2023/06/21 10:33:22;;;;;;;4.70;1.83;;;;;;;;;;5085110;28;20039;-67
2023/06/21 10:35:52;;;;;;;6.95;1.90;;;;;;;;;;5073614;28;20134;-67
2023/06/21 10:38:24;;;;;;;3.25;1.90;;;;;;;;;;5078511;28;20063;-67
2023/06/21 10:40:52;;;;;;;4.18;1.60;;;;;;;;;;5088356;28;20181;-67
2023/06/21 10:43:20;;;;;;;3.38;1.77;;;;;;;;;;5099870;28;20193;-67
2023/06/21 10:45:48;;;;;;;5.10;1.80;;;;;;;;;;5077136;28;20093;-68
2023/06/21 10:48:14;;;;;;;5.60;2.25;;;;;;;;;;5056985;28;20052;-67
2023/06/21 10:50:42;;;;;;;3.85;1.92;;;;;;;;;;5067577;28;20051;-69
2023/06/21 10:53:11;;;;;;;3.88;1.92;;;;;;;;;;5103231;28;20204;-68
2023/06/21 10:55:41;;;;;;;3.30;1.65;;;;;;;;;;5096105;28;20052;-68
2023/06/21 10:58:08;;;;;;;4.63;1.92;;;;;;;;;;5076375;28;20059;-68
2023/06/21 11:00:34;;;;;;;4.25;2.22;;;;;;;;;;5069681;28;20059;-67
2023/06/21 11:03:02;;;;;;;3.90;1.70;;;;;;;;;;5079960;28;20059;-68
2023/06/21 11:05:28;;;;;;;3.28;1.75;;;;;;;;;;5076411;28;20051;-67
2023/06/21 11:07:55;;;;;;;3.92;2.20;;;;;;;;;;5082799;28;20055;-68
2023/06/21 11:10:24;;;;;;;3.55;1.88;;;;;;;;;;5071728;28;20100;-68
2023/06/21 11:12:55;;;;;;;6.03;2.50;;;;;;;;;;5063840;28;20139;-67
2023/06/21 11:15:22;;;;;;;4.00;1.75;;;;;;;;;;5075151;28;20056;-68
2023/06/21 11:17:55;;;;;;;4.57;1.80;;;;;;;;;;5094011;28;20059;-68
2023/06/21 11:20:22;;;;;;;7.78;2.20;;;;;;;;;;5076717;28;20070;-67
2023/06/21 11:22:56;;;;;;;2.65;1.60;;;;;;;;;;5078191;28;20113;-67
2023/06/21 11:25:25;;;;;;;3.67;1.85;;;;;;;;;;5080890;28;20134;-67
2023/06/21 11:27:51;;;;;;;;;;;;;;;;;;5092755;28;20160;-67
2023/06/21 11:30:21;;;;;;;6.72;1.52;;;;;;;;;;5078498;28;19963;-67
2023/06/21 11:32:54;;;;;;;5.40;1.40;;;;;;;;;;5071647;28;20067;-67
2023/06/21 11:35:21;;;;;;;3.50;1.90;;;;;;;;;;5102557;28;20075;-67
2023/06/21 11:37:49;;;;;;;4.68;1.70;;;;;;;;;;5081323;28;20055;-67
2023/06/21 11:40:18;;;;;;;3.50;1.30;;;;;;;;;;5098341;28;20102;-67
2023/06/21 11:42:47;;;;;;;3.85;1.70;;;;;;;;;;5087772;28;20055;-67
2023/06/21 11:45:17;;;;;;;4.82;1.60;;;;;;;;;;5081822;28;20086;-67
2023/06/21 11:47:58;;;;;;;3.70;1.23;;;;;;;;;;5090436;28;20062;-67
2023/06/21 11:50:31;;;;;;;4.22;1.20;;;;;;;;;;5070030;28;20140;-68
2023/06/21 11:53:00;;;;;;;2.65;1.17;;;;;;;;;;5095319;28;20083;-66
2023/06/21 11:55:27;;;;;;;3.40;1.40;;;;;;;;;;5069285;28;20044;-66
2023/06/21 11:57:58;;;;;;;2.38;1.15;;;;;;;;;;5067808;28;20150;-66
2023/06/21 12:00:25;;;;;;;3.55;1.20;;;;;;;;;;5093283;28;20091;-68
2023/06/21 12:02:51;;;;;;;2.35;1.10;;;;;;;;;;5093537;28;20052;-66
2023/06/21 12:05:17;;;;;;;3.70;1.30;;;;;;;;;;5097272;28;20064;-67
2023/06/21 12:07:44;;;;;;;2.00;0.90;;;;;;;;;;5064417;28;20060;-66
2023/06/21 12:10:11;;;;;;;3.55;1.17;;;;;;;;;;5095492;28;20087;-66
2023/06/21 12:12:38;;;;;;;2.93;1.40;;;;;;;;;;5075314;28;20057;-66
2023/06/21 12:15:06;;;;;;;3.53;1.10;;;;;;;;;;5100833;27;20062;-66
2023/06/21 12:17:33;;;;;;;3.95;1.50;;;;;;;;;;5097210;28;20441;-66
2023/06/21 12:20:07;;;;;;;2.17;1.00;;;;;;;;;;5078413;28;20132;-66
2023/06/21 12:22:34;;;;;;;2.38;1.10;;;;;;;;;;5060268;28;20067;-66
2023/06/21 12:25:01;;;;;;;3.45;1.35;;;;;;;;;;5077864;28;20063;-66
2023/06/21 12:27:27;;;;;;;4.63;1.20;;;;;;;;;;5069569;28;20072;-66
2023/06/21 12:29:53;;;;;;;2.40;1.33;;;;;;;;;;5090480;28;20075;-65
2023/06/21 12:32:22;;;;;;;2.45;1.25;;;;;;;;;;5099923;28;20156;-66
2023/06/21 12:34:48;;;;;;;4.05;1.73;;;;;;;;;;5073151;28;20059;-65
2023/06/21 12:37:18;;;;;;;3.20;1.40;;;;;;;;;;5079735;28;20059;-65
2023/06/21 12:39:49;;;;;;;2.95;1.30;;;;;;;;;;5097404;28;20120;-66
2023/06/21 12:42:15;;;;;;;4.20;1.33;;;;;;;;;;5101454;28;20055;-66
2023/06/21 12:44:43;;;;;;;5.05;1.83;;;;;;;;;;5068166;28;20142;-65
2023/06/21 12:47:09;;;;;;;3.60;1.73;;;;;;;;;;5082090;28;20068;-65
2023/06/21 12:49:37;;;;;;;3.03;1.27;;;;;;;;;;5097406;28;20158;-66
2023/06/21 12:52:04;;;;;;;3.42;1.25;;;;;;;;;;5082737;28;20127;-64
2023/06/21 12:54:30;;;;;;;2.85;1.55;;;;;;;;;;5072577;28;20063;-66
2023/06/21 12:56:59;;;;;;;3.88;1.55;;;;;;;;;;5079028;28;20054;-65
2023/06/21 12:59:26;;;;;;;6.20;2.15;;;;;;;;;;5101309;28;20047;-64
2023/06/21 13:01:55;;;;;;;3.63;1.40;;;;;;;;;;5081057;28;20076;-64
2023/06/21 13:04:21;;;;;;;3.88;1.50;;;;;;;;;;5097919;28;20306;-67
2023/06/21 13:06:49;;;;;;;5.15;2.00;;;;;;;;;;5082016;27;20056;-65
2023/06/21 13:09:16;;;;;;;;;;;;;;;;;;5096244;27;20062;-64
2023/06/21 13:11:44;;;;;;;4.20;1.70;;;;;;;;;;5077298;28;19929;-65
2023/06/21 13:14:11;;;;;;;5.63;2.03;;;;;;;;;;5079771;28;20064;-64
2023/06/21 13:16:39;;;;;;;5.53;1.58;;;;;;;;;;5064670;28;20052;-67
2023/06/21 13:19:06;;;;;;;2.75;1.45;;;;;;;;;;5069163;28;20097;-67
2023/06/21 13:21:33;;;;;;;2.10;1.23;;;;;;;;;;5088294;28;20059;-64
2023/06/21 13:24:04;;;;;;;4.15;1.90;;;;;;;;;;5098960;28;20082;-64
2023/06/21 13:26:30;;;;;;;6.80;1.65;;;;;;;;;;5070440;28;20067;-65
2023/06/21 13:28:57;;;;;;;7.60;2.17;;;;;;;;;;5099246;28;20052;-64
2023/06/21 13:31:23;;;;;;;3.83;1.67;;;;;;;;;;5078599;28;20174;-64
2023/06/21 13:33:50;;;;;;;4.60;1.48;;;;;;;;;;5099020;28;20055;-65
2023/06/21 13:36:16;;;;;;;5.47;1.80;;;;;;;;;;5056913;28;20076;-64
2023/06/21 13:38:43;;;;;;;3.90;1.40;;;;;;;;;;5063233;28;20043;-64
2023/06/21 13:41:11;;;;;;;5.25;2.33;;;;;;;;;;5094905;28;20086;-64
2023/06/21 13:43:37;;;;;;;3.80;1.40;;;;;;;;;;5080713;28;20079;-64
2023/06/21 13:46:05;;;;;;;2.95;1.45;;;;;;;;;;5060619;28;20051;-64
2023/06/21 13:48:32;;;;;;;;;;;;;;;;;;5077973;28;20051;-64
2023/06/21 13:50:58;;;;;;;4.32;1.75;;;;;;;;;;5099438;28;19980;-64
2023/06/21 13:53:26;;;;;;;3.33;1.50;;;;;;;;;;5095938;28;20081;-64
2023/06/21 13:55:52;;;;;;;3.08;1.35;;;;;;;;;;5080856;28;20059;-64
2023/06/21 13:58:23;;;;;;;2.38;1.27;;;;;;;;;;5075725;28;20134;-64
2023/06/21 14:00:49;;;;;;;2.88;1.23;;;;;;;;;;5077519;28;21222;-64
2023/06/21 14:03:16;;;;;;;3.13;1.33;;;;;;;;;;5066645;28;20106;-64
2023/06/21 14:05:42;;;;;;;4.97;1.58;;;;;;;;;;5059246;28;20144;-64
2023/06/21 14:08:09;;;;;;;3.65;1.52;;;;;;;;;;5058226;28;20165;-64
2023/06/21 14:10:35;;;;;;;3.22;1.40;;;;;;;;;;5075198;28;20091;-64
2023/06/21 14:13:02;;;;;;;2.47;1.30;;;;;;;;;;5074118;28;20107;-64
2023/06/21 14:15:29;;;;;;;2.80;1.38;;;;;;;;;;5076604;28;20056;-64
2023/06/21 14:18:00;;;;;;;1.73;1.17;;;;;;;;;;5057810;28;20076;-64
2023/06/21 14:20:27;;;;;;;3.65;1.30;;;;;;;;;;5051665;28;20118;-65
2023/06/21 14:22:54;;;;;;;4.55;1.27;;;;;;;;;;5060765;28;20045;-64
2023/06/21 14:25:20;;;;;;;3.83;1.50;;;;;;;;;;5078798;28;20064;-64
2023/06/21 14:27:47;;;;;;;2.83;1.40;;;;;;;;;;5077155;28;20149;-64
2023/06/21 14:30:14;;;;;;;2.40;1.50;;;;;;;;;;5055969;28;20088;-64
2023/06/21 14:32:42;;;;;;;3.00;1.40;;;;;;;;;;5050269;28;20155;-64
2023/06/21 14:35:09;;;;;;;5.13;1.52;;;;;;;;;;5071879;28;20086;-64
2023/06/21 14:37:36;;;;;;;3.88;1.60;;;;;;;;;;5075723;28;20056;-64
2023/06/21 14:40:03;;;;;;;3.30;1.27;;;;;;;;;;5073987;28;20171;-64